• Join FlightAware (Why Join?)
  • Login
  • US Flag 
11:28AM EST


 

Airport Tracker/Info


-or-


 

Live Flight TrackerFlight Track Log ✈ N53NW ✈ 08-Feb-2014 ✈ KEGE - KBED

Flight Track Log - Related Links

Times and Time Zones

All times are in EST time to prevent confusion due to time zone crossing. See the N53NW flight status page for this flight to view local times or setup timezone preferences in your user account.

Time Position Orientation Groundspeed Altitude Reporting Facility
EST Latitude Longitude Course Direction KTS MPH feet Rate Location/Type
10:21AM 39.6483 -107.0400 94° East 233 268 15,000  Level Denver Center
10:22AM 39.7075 -107.0661 341° North 243 280 15,100 720 Climbing Denver Center
10:23AM 39.9667 -105.8972 90° East  Level FlightAware Approximate
10:23AM 39.7750 -107.0569 North 278 320 16,500  Level Denver Center
10:26AM 39.8719 -106.6822 73° East 367 422 23,700 2,280 Climbing Denver Center
10:27AM 39.8742 -106.5486 89° East 365 420 25,900 1,380 Climbing Denver Center
10:31AM 39.8853 -105.9375 73° East 424 488 30,900 1,200 Climbing Denver Center
10:32AM 40.0813 -105.7581 73° East  Level Estimated
10:32AM 39.8719 -105.7803 96° East 448 516 32,300  Level Denver Center
10:34AM 39.8350 -105.4606 83° East 449 517 34,800 1,080 Climbing Denver Center
10:35AM 39.8464 -105.3039 85° East 437 503 35,700 900 Climbing Denver Center
10:36AM 40.1732 -105.2561 73° East  Level Estimated
10:36AM 39.8642 -105.1486 81° East 434 499 36,700  Level Denver Center
10:37AM 39.8922 -104.9978 76° East 427 491 37,800 1,020 Climbing Denver Center
10:38AM 39.9242 -104.8122 77° East 433 498 38,900 960 Climbing Denver Center
10:39AM 39.9500 -104.6592 78° East 430 495 39,800 660 Climbing Denver Center
10:41AM 39.9938 -104.4686 78° East  Level Estimated
10:41AM 40.0033 -104.3536 78° East 429 494 41,000  Level Denver Center
10:42AM 40.0289 -104.1972 78° East 437 503 41,000  Level Denver Center
10:43AM 40.0564 -104.0353 77° East 451 519 41,000  Level Denver Center
10:44AM 40.0822 -103.8742 78° East 454 522 41,000 60 Level Denver Center
10:45AM 40.1089 -103.7136 78° East 454 522 41,200 480 Climbing Denver Center
10:46AM 40.1347 -103.5575 78° East 443 510 42,100 660 Climbing Denver Center
10:48AM 40.1589 -103.4028 78° East 436 502 42,800 660 Climbing Denver Center
10:50AM 40.2164 -103.0444 78° East 420 483 44,300 600 Climbing Denver Center
10:51AM 40.2344 -102.9258 79° East 418 481 44,700 300 Climbing Denver Center
10:52AM 40.2614 -102.7508 79° East 410 472 45,000 120 Climbing Denver Center
10:53AM 40.2883 -102.5775 78° East 421 484 45,000  Level Denver Center
10:54AM 40.3142 -102.4081 79° East 425 489 45,000  Level Denver Center
10:56AM 40.3631 -102.0842 79° East 439 505 45,000  Level Denver Center
10:57AM 40.3850 -101.9339 79° East 440 506 45,000  Level Denver Center
10:58AM 40.4078 -101.7844 79° East 437 503 45,000  Level Denver Center
10:59AM 40.4344 -101.6078 79° East 442 509 45,000  Level Denver Center
11:00AM 40.4525 -101.4819 79° East 441 507 45,000  Level Denver Center
11:01AM 40.4800 -101.2808 80° East 440 506 45,000  Level Denver Center
11:02AM 40.5014 -101.1278 80° East 444 511 45,000  Level Denver Center
11:04AM 40.5458 -100.7978 80° East 445 512 45,000  Level Denver Center
11:06AM 40.5894 -100.4703 80° East 444 511 45,000  Level Denver Center
11:07AM 40.6103 -100.3183 80° East 444 511 45,000  Level Denver Center
11:08AM 40.6336 -100.1400 80° East 445 512 45,000  Level Denver Center
11:09AM 40.6528 -99.9858 81° East 446 513 45,000  Level Denver Center
11:10AM 40.6739 -99.8225 80° East 447 514 45,000  Level Denver Center
11:11AM 40.6947 -99.6600 80° East 449 517 45,000  Level Denver Center
11:13AM 40.7156 -99.4967 80° East 452 520 45,000  Level Denver Center
11:14AM 40.7433 -99.2683 81° East 452 520 45,000  Level Denver Center
11:15AM 40.7633 -99.1053 81° East 452 520 45,000  Level Denver Center
11:16AM 40.7822 -98.9453 81° East 453 521 45,000  Level Denver Center
11:16AM 40.7981 -98.8181 81° East 453 521 45,000  Level Minneapolis Center
11:17AM 40.8167 -98.6519 82° East 457 526 45,000  Level Minneapolis Center
11:18AM 40.8358 -98.4872 81° East 456 525 45,000  Level Minneapolis Center
11:20AM 40.8547 -98.3194 81° East 456 525 45,000  Level Minneapolis Center
11:21AM 40.8736 -98.1533 81° East 459 528 45,000  Level Minneapolis Center
11:25AM 40.9461 -97.4903 82° East 455 524 45,000  Level Minneapolis Center
11:26AM 40.9661 -97.2942 82° East 453 521 45,000  Level Minneapolis Center
11:27AM 40.9831 -97.1303 82° East 452 520 45,000  Level Minneapolis Center
11:28AM 41.0006 -96.9636 82° East 452 520 45,000  Level Minneapolis Center
11:29AM 41.0172 -96.8000 82° East 454 522 45,000  Level Minneapolis Center
11:30AM 41.0339 -96.6344 82° East 455 524 45,000  Level Minneapolis Center
11:31AM 41.0500 -96.4694 83° East 454 522 45,000  Level Minneapolis Center
11:32AM 41.0661 -96.3036 83° East 457 526 45,000  Level Minneapolis Center
11:33AM 41.0825 -96.1386 82° East 456 525 45,000  Level Minneapolis Center
11:34AM 41.0972 -95.9733 83° East 458 527 45,000  Level Minneapolis Center
11:35AM 41.1144 -95.7739 83° East 459 528 45,000  Level Minneapolis Center
11:36AM 41.1292 -95.6069 83° East 460 529 45,000  Level Minneapolis Center
11:37AM 41.1439 -95.4400 83° East 459 528 45,000  Level Minneapolis Center
11:39AM 41.1736 -95.1047 83° East 462 532 45,000  Level Minneapolis Center
11:40AM 41.1872 -94.9364 84° East 461 531 45,000  Level Minneapolis Center
11:42AM 41.2222 -94.5100 84° East 465 535 45,000  Level Chicago Center
11:43AM 41.2297 -94.3931 85° East 464 534 45,000  Level Minneapolis Center
11:44AM 41.2436 -94.2217 84° East 466 536 45,000  Level Minneapolis Center
11:45AM 41.2544 -94.0714 84° East 464 534 45,000  Level Minneapolis Center
11:46AM 41.2675 -93.8997 84° East 466 536 45,000  Level Minneapolis Center
11:48AM 41.2956 -93.5275 84° East 462 532 45,000  Level Minneapolis Center
11:49AM 41.3089 -93.3544 84° East 467 537 45,000  Level Minneapolis Center
11:51AM 41.3319 -93.0169 85° East 460 529 45,000  Level Minneapolis Center
11:52AM 41.3428 -92.8461 85° East 462 532 45,000  Level Minneapolis Center
11:53AM 41.3542 -92.6744 85° East 465 535 45,000  Level Minneapolis Center
11:55AM 41.3692 -92.4336 85° East 468 539 45,000  Level Chicago Center
11:56AM 41.3789 -92.2769 85° East 466 536 45,000  Level Chicago Center
11:57AM 41.3881 -92.1069 86° East 466 536 45,000  Level Chicago Center
11:58AM 41.4006 -91.9011 85° East 469 540 45,000  Level Chicago Center
11:59AM 41.4100 -91.7308 86° East 467 537 45,000  Level Chicago Center
12:01PM 41.4283 -91.3875 86° East 468 539 45,000  Level Chicago Center
12:02PM 41.4367 -91.2006 87° East 471 542 45,000  Level Chicago Center
12:05PM 41.4631 -90.6725 86° East 476 548 45,000  Level Chicago Center
12:06PM 41.4711 -90.4981 86° East 473 544 45,000  Level Chicago Center
12:09PM 41.4933 -89.9692 87° East 475 547 45,000  Level Chicago Center
12:10PM 41.5003 -89.7922 87° East 476 548 45,000  Level Chicago Center
12:11PM 41.5078 -89.6158 87° East 475 547 45,000  Level Chicago Center
12:12PM 41.5158 -89.4047 87° East 473 544 45,000  Level Chicago Center
12:13PM 41.5217 -89.2283 87° East 474 545 45,000  Level Chicago Center
12:15PM 41.5317 -88.8936 91° East 476 548 45,000  Level Chicago Center
12:16PM 41.5372 -88.6806 88° East 479 551 45,000  Level Chicago Center
12:17PM 41.5419 -88.5044 88° East 476 548 45,000  Level Chicago Center
12:18PM 41.5467 -88.3261 88° East 478 550 45,000  Level Chicago Center
12:19PM 41.5469 -88.1483 90° East 474 545 45,000  Level Chicago Center
12:20PM 41.5458 -87.9683 90° East 472 543 45,000  Level Chicago Center
12:21PM 41.5456 -87.7897 90° East 472 543 45,000  Level Chicago Center
12:22PM 41.5453 -87.6089 90° East 481 554 45,000  Level Chicago Center
12:23PM 41.5444 -87.4303 90° East 480 552 45,000  Level Chicago Center
12:24PM 41.5428 -87.2517 91° East 481 554 45,000  Level Chicago Center
12:25PM 41.5408 -87.0747 91° East 480 552 45,000  Level Chicago Center
12:26PM 41.5394 -86.8953 91° East 482 555 45,000  Level Chicago Center
12:27PM 41.5358 -86.7014 91° East 483 556 45,000  Level Chicago Center
12:29PM 41.5314 -86.3453 93° East 479 551 45,000  Level Chicago Center
12:30PM 41.5281 -86.1683 91° East 478 550 45,000  Level Chicago Center
12:31PM 41.5250 -85.9914 91° East 477 549 45,000  Level Chicago Center
12:32PM 41.5200 -85.8158 92° East 475 547 45,000  Level Chicago Center
12:34PM 41.5100 -85.4675 92° East 479 551 45,000  Level Cleveland Center
12:35PM 41.5044 -85.2922 92° East 479 551 45,000  Level Cleveland Center
12:36PM 41.4983 -85.1153 93° East 484 557 45,000  Level Cleveland Center
12:37PM 41.4908 -84.8997 93° East 487 560 45,000  Level Chicago Center
12:38PM 41.4844 -84.7189 93° East 489 563 45,000  Level Chicago Center
12:40PM 41.5178 -84.3586 77° East 498 573 45,000  Level Cleveland Center
12:41PM 41.5436 -84.2064 77° East 497 572 45,000  Level Cleveland Center
12:42PM 41.5792 -83.9903 78° East 499 574 45,000  Level Cleveland Center
12:43PM 41.6075 -83.8089 78° East 502 578 45,000  Level Cleveland Center
12:44PM 41.6364 -83.6272 78° East 504 580 45,000  Level Cleveland Center
12:45PM 41.6658 -83.4469 78° East 502 578 45,000  Level Cleveland Center
12:46PM 41.6931 -83.2658 79° East 502 578 45,000  Level Cleveland Center
12:47PM 41.7222 -83.0844 78° East 503 579 45,000  Level Cleveland Center
12:49PM 41.7819 -82.6856 73° East 503 579 45,000  Level Cleveland Center
12:52PM 41.8361 -82.3200 72° East 504 580 45,000  Level Cleveland Center
12:54PM 41.8892 -81.9436 79° East 506 582 45,000  Level Cleveland Center
12:56PM 41.9414 -81.5675 79° East 505 581 45,000  Level Cleveland Center
12:57PM 41.9683 -81.3783 79° East 509 586 45,000  Level Cleveland Center
12:59PM 42.0200 -81.0000 79° East 508 585 45,000  Level Cleveland Center
01:01PM 42.0708 -80.6197 80° East 511 588 45,000  Level Cleveland Center
01:02PM 42.0956 -80.4311 80° East 508 585 45,000  Level Cleveland Center
01:04PM 42.1439 -80.0514 80° East 508 585 45,000  Level Cleveland Center
01:05PM 42.1689 -79.8453 81° East 511 588 45,000  Level Cleveland Center
01:06PM 42.1922 -79.6572 80° East 510 587 45,000  Level Cleveland Center
01:08PM 42.2356 -79.2814 79° East 510 587 45,000  Level Cleveland Center
01:12PM 42.3228 -78.5203 82° East 510 587 45,000  Level Cleveland Center
01:13PM 42.3436 -78.3331 81° East 509 586 45,000  Level Cleveland Center
01:15PM 42.3886 -77.9214 81° East 507 583 45,000  Level Cleveland Center
01:16PM 42.4097 -77.7364 81° East 506 582 45,000  Level Cleveland Center
01:17PM 42.3938 -77.8993 82° East  Level FlightAware Approximate
01:17PM 42.4289 -77.5300 83° East 509 586 45,000  Level Cleveland Center
01:18PM 42.4464 -77.3661 82° East 505 581 45,000  Level Cleveland Center
01:19PM 42.4686 -77.1419 82° East 507 583 45,000  Level Cleveland Center
01:20PM 42.4867 -76.9544 82° East 506 582 45,000  Level Cleveland Center
01:21PM 42.5047 -76.7653 83° East 508 585 45,000  Level Cleveland Center
01:23PM 42.5403 -76.3858 83° East 510 587 45,000  Level Cleveland Center
01:24PM 42.5567 -76.2075 83° East 512 589 45,000  Level Cleveland Center
01:25PM 42.5764 -75.9783 83° East 513 590 45,000  Level Cleveland Center
01:26PM 42.5781 -75.7892 89° East 507 583 45,000 -180 Level Cleveland Center
01:27PM 42.5794 -75.5986 89° East 508 585 44,700 -2,220 Descending Cleveland Center
01:30PM 42.5828 -74.9917 90° East 507 583 35,700 -2,880 Descending Boston Center
01:31PM 42.5833 -74.8114 90° East 491 565 32,900 -2,220 Descending Boston Center
01:34PM 42.5819 -74.4825 91° East 434 499 29,000 -1,320 Descending Boston Center
01:35PM 42.5811 -74.3239 90° East 426 490 29,000  Level Boston Center
01:36PM 42.5675 -74.2741 90° East  Level FlightAware Approximate
01:36PM 42.5814 -74.1617 90° East 430 495 29,000  Level Boston Center
01:37PM 42.5792 -74.0003 91° East 429 494 28,600 -840 Descending Boston Center
01:38PM 42.5783 -73.8139 90° East 417 480 27,300 -1,380 Descending Boston Center
01:39PM 42.5761 -73.6586 91° East 411 473 25,800 -1,440 Descending Boston Center
01:40PM 42.5739 -73.5039 91° East 412 474 24,400 -600 Descending Boston Center
01:42PM 42.5694 -73.2039 91° East 397 457 24,000 -180 Descending Boston Center
01:43PM 42.5669 -73.0506 91° East 400 460 24,000  Level Boston Center
01:44PM 42.5642 -72.9050 91° East 399 459 24,000 -1,020 Level Boston Center
01:45PM 42.5611 -72.7575 92° East 393 452 22,000 -2,160 Descending Boston Center
01:46PM 42.5589 -72.6183 91° East 373 429 19,700 -2,280 Descending Boston Center
01:47PM 42.5553 -72.4747 92° East 355 409 17,400 -2,280 Descending Boston Center
01:48PM 42.5528 -72.3472 91° East 341 392 15,100 -2,100 Descending Boston Center
01:50PM 42.5469 -72.0864 92° East 317 365 11,100 -1,920 Descending Boston Center
01:51PM 42.5383 -71.9706 96° East 312 359 9,300 -1,800 Descending Boston Center
01:52PM 42.5283 -71.8611 97° East 297 342 7,500 -1,680 Descending Boston Center
01:53PM 42.5222 -71.7614 95° East 267 307 6,000 -1,200 Descending Boston Center
01:54PM 42.5283 -71.6578 85° East 258 297 5,100 -480 Descending Boston Center
01:55PM 42.5328 -71.5631 86° East 253 291 5,100 -540 Level Boston Center
01:56PM 42.5333 -71.4500 90° East 237 273 4,000 -1,020 Descending KA90
01:57PM 42.5333 -71.3667 90° East 220 253 3,000 -840 Descending KA90
01:58PM 42.5500 -71.3000 71° East 217 250 2,400 -480 Descending KA90
01:59PM 42.5500 -71.2167 90° East 193 222 2,000 -420 Descending KA90
02:00PM 42.5167 -71.1833 144° Southeast 169 194 1,600 -360 Descending KA90
02:01PM 42.4833 -71.2000 200° South 117 135 1,300 -420 Descending KA90
02:03PM 42.4689 -71.2631 253° West 108 124 400 -480 Descending Boston Center
02:05PM 42.4667 -71.2833 270° West  Level FlightAware Approximate
02:12PM 42.4699 -71.2890 270° West  Level Estimated
02:13PM 42.4667 -71.2833 270° West  Level FlightAware Approximate
02:14PM 42.4699 -71.2890 270° West  Level Estimated
02:15PM 42.4667 -71.2833 270° West  Level FlightAware Approximate
02:16PM 42.4699 -71.2890 270° West  Level Estimated
02:17PM 42.4667 -71.2833 270° West  Level FlightAware Approximate
02:18PM 42.4699 -71.2890 270° West  Level Estimated
02:19PM 42.4667 -71.2833 270° West  Level FlightAware Approximate
02:20PM 42.4699 -71.2890 270° West  Level Estimated